CheckWX is a tool to help pilots better visualize weather data.  It is not intended as a substitute for an official pre-flight weather briefing.

02:18:32 UTC

YBTL TAF
Townsville Airport
Townsville, Australia
TAF AMD YBTL 182311Z 1900/1924 11012KT 9999 -SHRA SCT020 SCT040 FM190100 06014KT 9999 -SHRA FEW022 SCT035 FM191000 12008KT 9999 -SHRA SCT020 SCT040 INTER 1900/1905 4000 SHRA BKN015 INTER 1910/1924 4000 SHRA BKN015

Mar-19@
00:00 UTC

Mar-19 @ 00:00 UTC

Mar-19@
01:00 UTC

Mar-19 @ 01:00 UTC

TAF AMD YBTL 182311Z 1900/1924 11012KT 9999 -SHRA SCT020 SCT040

Expired

Wind
  • 110° at 12 KTS
Conditions
Light Rain
Cloud Levels
  • Scattered at 2,000' AGL
  • Scattered at 4,000' AGL

Mar-19@
00:00 UTC

Mar-19 @ 00:00 UTC

Mar-19@
05:00 UTC

Mar-19 @ 05:00 UTC

INTER 1900/1905 4000 SHRA BKN015

Temporary

Temporary Changes expected for less than half the time period

Conditions
Rain
Cloud Levels
  • Broken at 1,500' AGL

Mar-19@
01:00 UTC

Mar-19 @ 01:00 UTC

Mar-19@
10:00 UTC

Mar-19 @ 10:00 UTC

FM190100 06014KT 9999 -SHRA FEW022 SCT035

From

From Standard forecast or significant change

Wind
  • 060° at 14 KTS
Conditions
Light Rain
Cloud Levels
  • Few at 2,200' AGL
  • Scattered at 3,500' AGL

Mar-19@
10:00 UTC

Mar-19 @ 10:00 UTC

Mar-20@
00:00 UTC

Mar-20 @ 00:00 UTC

FM191000 12008KT 9999 -SHRA SCT020 SCT040

From

From Standard forecast or significant change

Wind
  • 120° at 8 KTS
Conditions
Light Rain
Cloud Levels
  • Scattered at 2,000' AGL
  • Scattered at 4,000' AGL

Mar-19@
10:00 UTC

Mar-19 @ 10:00 UTC

Mar-20@
00:00 UTC

Mar-20 @ 00:00 UTC

INTER 1910/1924 4000 SHRA BKN015

Temporary

Temporary Changes expected for less than half the time period

Conditions
Rain
Cloud Levels
  • Broken at 1,500' AGL